createdAt,value
2022-10-03T00:02:37.590Z,100
2022-10-03T00:12:37.544Z,100
2022-10-03T00:22:37.524Z,100
2022-10-03T00:32:37.532Z,100
2022-10-03T00:42:37.488Z,100
2022-10-03T00:52:37.660Z,100
2022-10-03T01:02:37.543Z,100
2022-10-03T01:12:37.523Z,100
2022-10-03T01:22:37.472Z,100
2022-10-03T01:32:37.488Z,100
2022-10-03T01:42:37.491Z,100
2022-10-03T01:52:37.491Z,100
2022-10-03T02:02:37.472Z,100
2022-10-03T02:12:37.465Z,100
2022-10-03T02:22:37.482Z,100
2022-10-03T02:32:37.574Z,100
2022-10-03T02:42:37.449Z,100
2022-10-03T02:52:37.470Z,100
2022-10-03T03:02:37.440Z,100
2022-10-03T03:12:41.183Z,100
2022-10-03T03:22:37.439Z,100
2022-10-03T03:32:37.441Z,100
2022-10-03T03:42:37.431Z,100
2022-10-03T03:52:37.466Z,100
2022-10-03T04:02:37.437Z,100
2022-10-03T04:12:37.443Z,100
2022-10-03T04:22:37.400Z,100
2022-10-03T04:32:37.416Z,100
2022-10-03T04:42:37.391Z,100
2022-10-03T04:52:37.460Z,100
2022-10-03T05:02:37.440Z,100
2022-10-03T05:12:37.445Z,100
2022-10-03T05:22:37.380Z,100
2022-10-03T05:32:37.394Z,100
2022-10-03T05:42:37.368Z,100
2022-10-03T05:52:37.411Z,100
2022-10-03T06:02:37.481Z,100
2022-10-03T06:12:37.373Z,100
2022-10-03T06:22:37.355Z,100
2022-10-03T06:32:37.357Z,100
2022-10-03T06:42:37.344Z,100
2022-10-03T06:52:37.340Z,100
2022-10-03T07:02:37.409Z,100
2022-10-03T07:12:37.374Z,100
2022-10-03T07:22:37.341Z,100
2022-10-03T07:32:37.353Z,100
2022-10-03T07:52:37.332Z,100
2022-10-03T08:02:37.313Z,100
2022-10-03T08:12:37.331Z,100
2022-10-03T08:22:37.284Z,100
2022-10-03T08:32:37.333Z,100
2022-10-03T08:42:37.311Z,100
2022-10-03T08:52:37.295Z,100
2022-10-03T09:02:37.331Z,100
2022-10-03T09:12:37.264Z,100
2022-10-03T09:22:37.265Z,100
2022-10-03T09:32:37.307Z,100
2022-10-03T09:42:37.221Z,100
2022-10-03T09:52:37.248Z,100
2022-10-03T10:02:37.233Z,91
2022-10-03T10:12:37.237Z,79
2022-10-03T10:22:37.267Z,72
2022-10-03T10:32:37.239Z,68
2022-10-03T10:42:37.177Z,64
2022-10-03T10:52:37.212Z,61
2022-10-03T11:02:37.152Z,56
2022-10-03T11:12:37.197Z,53
2022-10-03T11:22:37.103Z,52
2022-10-03T11:32:37.148Z,52
2022-10-03T11:42:37.102Z,52
2022-10-03T11:52:37.248Z,52
2022-10-03T12:02:37.252Z,52
2022-10-03T12:12:37.116Z,52
2022-10-03T12:22:37.073Z,50
2022-10-03T12:32:37.131Z,51
2022-10-03T12:42:37.057Z,53
2022-10-03T12:52:37.091Z,50
2022-10-03T13:02:37.128Z,52
2022-10-03T13:12:37.059Z,51
2022-10-03T13:22:37.013Z,51
2022-10-03T13:32:37.092Z,51
2022-10-03T13:42:37.014Z,50
2022-10-03T13:52:37.011Z,50
2022-10-03T14:02:37.067Z,50
2022-10-03T14:03:47.095Z,51
2022-10-03T14:13:47.152Z,53
2022-10-03T14:23:47.133Z,53
2022-10-03T14:33:47.141Z,54
2022-10-03T14:43:47.106Z,53
2022-10-03T14:53:47.143Z,54
2022-10-03T15:03:47.137Z,54
2022-10-03T15:13:47.099Z,57
2022-10-03T15:23:47.061Z,55
2022-10-03T15:33:47.095Z,59
2022-10-03T15:43:47.042Z,60
2022-10-03T15:53:47.162Z,60
2022-10-03T16:03:47.016Z,63
2022-10-03T16:13:47.068Z,68
2022-10-03T16:23:47.023Z,80
2022-10-03T16:33:47.046Z,93
2022-10-03T16:43:47.004Z,94
2022-10-03T16:53:47.013Z,98
2022-10-03T17:03:46.993Z,100
2022-10-03T17:13:47.019Z,100
2022-10-03T17:23:46.982Z,100
2022-10-03T17:33:47.043Z,100
2022-10-03T17:43:46.971Z,100
2022-10-03T17:53:46.981Z,100
2022-10-03T18:03:46.963Z,100
2022-10-03T18:13:46.971Z,100
2022-10-03T18:23:55.560Z,100
2022-10-03T18:33:46.972Z,100
2022-10-03T18:43:46.933Z,100
2022-10-03T18:53:47.044Z,100
2022-10-03T19:03:46.922Z,100
2022-10-03T19:13:49.444Z,100
2022-10-03T19:23:46.967Z,100
2022-10-03T19:33:46.959Z,100
2022-10-03T19:43:46.901Z,100
2022-10-03T19:53:47.011Z,100
2022-10-03T20:03:46.892Z,100
2022-10-03T20:13:46.928Z,100
2022-10-03T20:23:46.911Z,100
2022-10-03T20:33:46.939Z,100
2022-10-03T20:43:46.909Z,100
2022-10-03T20:53:46.876Z,100
2022-10-03T21:03:46.874Z,100
2022-10-03T21:13:46.922Z,100
2022-10-03T21:23:46.867Z,100
2022-10-03T21:33:46.919Z,100
2022-10-03T21:43:46.899Z,100
2022-10-03T21:53:46.899Z,100
2022-10-03T22:03:46.873Z,100
2022-10-03T22:13:46.895Z,100
2022-10-03T22:23:46.887Z,100
2022-10-03T22:33:46.905Z,100
2022-10-03T22:43:46.872Z,100
2022-10-03T22:53:47.034Z,100
2022-10-03T23:03:46.911Z,100
2022-10-03T23:13:46.913Z,100
2022-10-03T23:23:46.887Z,100
2022-10-03T23:33:46.904Z,100
2022-10-03T23:43:46.871Z,100
2022-10-03T23:53:46.925Z,100
